Zarling — WDD7883 — position and weather

sailwx.info

Track history (hours):
 
Tides and Currents Weather Stations Pressure Air Temp Water Temp Dewpoint Dewpoint Depression Visibility Wind Speed Wind Dir Waves Ship Positions

Zarling

Owner: Clean Rivers Co-op, Portland, OR. More information available from US FCC via Universal Licensing System.

Last reported at 2014-Oct-31 07:32 UTC. Time now 2014-Oct-31 07:48 UTC.
Position N 45°33' W 122°42'.

Length 12 m.

Type: Pollution control. MMSI: 3699126.

Date/timePositionNaut miles runAvg speedWind from/ knotsBaromVisibWave heightAir tempDewpointWater temp
2014-Oct-31 07:32N 45°33' W 122°42'3430281.4
2014-Oct-31 07:32N 46°05' W 122°56'201127.5
2014-Oct-31 07:31N 46°12' W 123°23'4377165.8
2014-Oct-31 07:30N 45°37' W 122°48'15158.8
2014-Oct-31 07:25N 45°52' W 122°48'1921.8
2014-Oct-31 06:32N 45°33' W 122°42'191364.3
2014-Oct-31 06:31N 45°52' W 122°48'152134.6
2014-Oct-31 06:31N 45°37' W 122°48'4338582.9
2014-Oct-31 06:30N 46°12' W 123°23'20648.5
2014-Oct-31 06:29N 46°05' W 122°56'2931.2
2014-Oct-31 05:33N 45°37' W 122°48'43154331.6
2014-Oct-31 05:33N 46°12' W 123°23'491621.2
2014-Oct-31 05:32N 45°33' W 122°42'34651.1
2014-Oct-31 05:29N 46°05' W 122°56'14234.5
2014-Oct-31 05:25N 45°52' W 122°48'3237.3
2014-Oct-31 04:33N 46°12' W 123°23'491667.5
2014-Oct-31 04:32N 45°33' W 122°42'191546.7
2014-Oct-31 04:31N 45°52' W 122°48'152224.5
2014-Oct-31 04:31N 45°37' W 122°48'29346.3
2014-Oct-31 04:26N 46°05' W 122°56'3437.5
2014-Oct-31 03:32N 45°33' W 122°42'3420187.6
2014-Oct-31 03:32N 46°05' W 122°56'20297.9
2014-Oct-31 03:27N 46°12' W 123°23'43429.9
2014-Oct-31 03:21N 45°37' W 122°48'15103.5
2014-Oct-31 03:13N 45°52' W 122°48'3248.7
2014-Oct-31 02:33N 46°12' W 123°23'20672.3
2014-Oct-31 02:32N 46°05' W 122°56'291588.0
2014-Oct-31 02:31N 45°37' W 122°48'6188.3
2014-Oct-31 02:29N 45°33' W 122°42'1991.1
2014-Oct-31 02:16N 45°52' W 122°48'3245.2
2014-Oct-31 01:33N 46°12' W 123°23'20678.6
2014-Oct-31 01:32N 46°05' W 122°56'141239.6
2014-Oct-31 01:31N 45°52' W 122°48'19527.3
2014-Oct-31 01:29N 45°33' W 122°42'6301.3
2014-Oct-31 01:28N 45°37' W 122°48'4347.5
2014-Oct-31 00:33N 46°12' W 123°23'491733.7
2014-Oct-31 00:32N 45°33' W 122°42'34644.3
2014-Oct-31 00:29N 46°05' W 122°56'141446.2
2014-Oct-31 00:28N 45°52' W 122°48'1571.7
2014-Oct-31 00:16N 45°37' W 122°48'6 8.0
2014-Oct-30 23:32N 45°33' W 122°42'191619.1
2014-Oct-30 23:31N 45°52' W 122°48'15260.4
2014-Oct-30 23:28N 45°37' W 122°48'4322047.4
2014-Oct-30 23:27N 46°12' W 123°23'20672.3
2014-Oct-30 23:26N 46°05' W 122°56'0 0.0
2014-Oct-30 22:32N 46°05' W 122°56'141335.0
2014-Oct-30 22:31N 45°52' W 122°48'32548.9
2014-Oct-30 22:27N 46°12' W 123°23'491700.1
2014-Oct-30 22:26N 45°33' W 122°42'621.8
2014-Oct-30 22:10N 45°37' W 122°48'6 9.3
2014-Oct-30 21:32N 45°33' W 122°42'6301.3
2014-Oct-30 21:31N 45°37' W 122°48'15342.2
2014-Oct-30 21:28N 45°52' W 122°48'323601.9
2014-Oct-30 21:27N 46°12' W 123°23'20672.3
2014-Oct-30 21:26N 46°05' W 122°56'2023.4
2014-Oct-30 20:33N 46°12' W 123°23'32758.2
2014-Oct-30 20:31N 45°52' W 122°48'19222.4
2014-Oct-30 20:26N 45°33' W 122°42'684.4
2014-Oct-30 20:22N 45°37' W 122°48'29874.6
2014-Oct-30 20:20N 46°05' W 122°56'0 0.0
2014-Oct-30 19:32N 46°05' W 122°56'141445.7
2014-Oct-30 19:31N 45°52' W 122°48'152224.5
2014-Oct-30 19:31N 45°37' W 122°48'43843.3
2014-Oct-30 19:28N 46°12' W 123°23'491636.4
2014-Oct-30 19:26N 45°33' W 122°42'0 0.0
2014-Oct-30 18:32N 45°33' W 122°42'3411011.4
2014-Oct-30 18:32N 46°05' W 122°56'14243.2
2014-Oct-30 18:28N 45°52' W 122°48'15139.8
2014-Oct-30 18:22N 45°37' W 122°48'43808.0
2014-Oct-30 18:18N 46°12' W 123°23'4962.5
2014-Oct-30 17:32N 45°33' W 122°42'34634.2
2014-Oct-30 17:29N 46°05' W 122°56'29433.6
2014-Oct-30 17:25N 45°37' W 122°48'43820.9
2014-Oct-30 17:21N 46°12' W 123°23'32768.4
2014-Oct-30 17:19N 45°52' W 122°48'1418.8
2014-Oct-30 16:33N 46°05' W 122°56'20502.0
2014-Oct-30 16:30N 46°12' W 123°23'491768.8
2014-Oct-30 16:29N 45°33' W 122°42'191581.8
2014-Oct-30 16:28N 45°52' W 122°48'15138.6
2014-Oct-30 16:22N 45°37' W 122°48'4353.4
2014-Oct-30 15:33N 46°12' W 123°23'43924.1
2014-Oct-30 15:31N 45°37' W 122°48'6185.1
2014-Oct-30 15:29N 45°33' W 122°42'341044.2
2014-Oct-30 15:27N 46°05' W 122°56'14180.7
2014-Oct-30 15:22N 45°52' W 122°48'1923.1
2014-Oct-30 14:32N 45°33' W 122°42'191513.5
2014-Oct-30 14:31N 45°52' W 122°48'323492.3
2014-Oct-30 14:30N 46°12' W 123°23'43907.9
2014-Oct-30 14:28N 45°37' W 122°48'29454.7
2014-Oct-30 14:24N 46°05' W 122°56'2024.2
2014-Oct-30 13:33N 46°12' W 123°23'202035.7
2014-Oct-30 13:33N 46°05' W 122°56'342018.4
2014-Oct-30 13:32N 45°33' W 122°42'684.4
2014-Oct-30 13:28N 45°37' W 122°48'15159.8
2014-Oct-30 13:22N 45°52' W 122°48'3239.5
2014-Oct-30 12:33N 46°12' W 123°23'202093.9
2014-Oct-30 12:33N 46°05' W 122°56'14486.4
2014-Oct-30 12:31N 45°52' W 122°48'152426.7
2014-Oct-30 12:31N 45°37' W 122°48'625.3
2014-Oct-30 12:17N 45°33' W 122°42'4967.3
2014-Oct-30 11:33N 46°12' W 123°23'202035.7
2014-Oct-30 11:33N 46°05' W 122°56'341922.6
2014-Oct-30 11:32N 45°33' W 122°42'191481.3
2014-Oct-30 11:31N 45°52' W 122°48'1595.5
2014-Oct-30 11:22N 45°37' W 122°48'2935.2
2014-Oct-30 10:33N 46°05' W 122°56'14505.3
2014-Oct-30 10:31N 45°52' W 122°48'322680.1
2014-Oct-30 10:30N 46°12' W 123°23'43941.0
2014-Oct-30 10:28N 45°37' W 122°48'672.5
2014-Oct-30 10:23N 45°33' W 122°42'4959.1
2014-Oct-30 09:33N 46°12' W 123°23'491751.3
2014-Oct-30 09:32N 45°33' W 122°42'6315.0
2014-Oct-30 09:31N 45°37' W 122°48'292106.1
2014-Oct-30 09:30N 46°05' W 122°56'14495.8
2014-Oct-30 09:28N 45°52' W 122°48'3235.2
2014-Oct-30 08:33N 46°12' W 123°23'491786.8
2014-Oct-30 08:32N 45°33' W 122°42'191697.6
2014-Oct-30 08:31N 45°52' W 122°48'152426.7
2014-Oct-30 08:31N 45°37' W 122°48'29437.4
2014-Oct-30 08:27N 46°05' W 122°56'2022.9
2014-Oct-30 07:33N 46°12' W 123°23'32823.3
2014-Oct-30 07:31N 45°52' W 122°48'19223.8
2014-Oct-30 07:26N 45°33' W 122°42'6293.1
2014-Oct-30 07:25N 45°37' W 122°48'29444.8
2014-Oct-30 07:21N 46°05' W 122°56'2025.8
2014-Oct-30 06:33N 46°12' W 123°23'32363.6
2014-Oct-30 06:28N 45°52' W 122°48'151976.5
2014-Oct-30 06:28N 45°37' W 122°48'29448.7
2014-Oct-30 06:24N 46°05' W 122°56'2024.2
2014-Oct-30 05:33N 46°12' W 123°23'32823.2
2014-Oct-30 05:31N 45°52' W 122°48'152135.5
2014-Oct-30 05:31N 45°37' W 122°48'29441.0
2014-Oct-30 05:27N 46°05' W 122°56'0 0.0
2014-Oct-30 04:33N 46°05' W 122°56'342202.3
2014-Oct-30 04:32N 45°33' W 122°42'683.8
2014-Oct-30 04:28N 45°37' W 122°48'439645.7
2014-Oct-30 04:27N 46°12' W 123°23'32230.5
2014-Oct-30 04:19N 45°52' W 122°48'1418.7
2014-Oct-30 03:33N 46°05' W 122°56'14520.6
2014-Oct-30 03:31N 45°52' W 122°48'152321.2
2014-Oct-30 03:31N 45°37' W 122°48'6185.0
2014-Oct-30 03:29N 45°33' W 122°42'492084.6
2014-Oct-30 03:27N 46°12' W 123°23'2022.4
2014-Oct-30 02:33N 46°05' W 122°56'14520.6
2014-Oct-30 02:31N 45°52' W 122°48'152224.5
2014-Oct-30 02:31N 45°37' W 122°48'438575.0
2014-Oct-30 02:30N 46°12' W 123°23'492694.0
2014-Oct-30 02:29N 45°33' W 122°42'4952.2
2014-Oct-30 01:34N 46°12' W 123°23'20334.6
2014-Oct-30 01:30N 46°05' W 122°56'342088.4
2014-Oct-30 01:29N 45°33' W 122°42'191546.7
2014-Oct-30 01:28N 45°52' W 122°48'152542.2
2014-Oct-30 01:28N 45°37' W 122°48'4347.3
2014-Oct-30 00:33N 46°12' W 123°23'204885.7
2014-Oct-30 00:33N 46°05' W 122°56'14473.1
2014-Oct-30 00:31N 45°52' W 122°48'15244.9
2014-Oct-30 00:28N 45°37' W 122°48'625.5
2014-Oct-30 00:14N 45°33' W 122°42'0 0.0
2014-Oct-29 23:32N 45°33' W 122°42'191480.9
2014-Oct-29 23:31N 45°52' W 122°48'152542.2
2014-Oct-29 23:31N 45°37' W 122°48'436430.5
2014-Oct-29 23:30N 46°12' W 123°23'20342.5
2014-Oct-29 23:27N 46°05' W 122°56'3436.8
2014-Oct-29 22:32N 45°33' W 122°42'191513.1
2014-Oct-29 22:31N 45°52' W 122°48'152225.4
2014-Oct-29 22:31N 45°37' W 122°48'43779.5
2014-Oct-29 22:27N 46°12' W 123°23'20336.2
2014-Oct-29 22:24N 46°05' W 122°56'2024.3
2014-Oct-29 21:33N 46°12' W 123°23'201980.7
2014-Oct-29 21:33N 46°05' W 122°56'14515.5
2014-Oct-29 21:31N 45°52' W 122°48'19220.3
2014-Oct-29 21:26N 45°33' W 122°42'685.4
2014-Oct-29 21:22N 45°37' W 122°48'2933.1
2014-Oct-29 20:30N 46°05' W 122°56'204310.9
2014-Oct-29 20:30N 46°12' W 123°23'495002.6
2014-Oct-29 20:29N 45°33' W 122°42'191546.7
2014-Oct-29 20:28N 45°52' W 122°48'15261.7
2014-Oct-29 20:25N 45°37' W 122°48'0 0.0
2014-Oct-29 19:31N 45°37' W 122°48'291810.5
2014-Oct-29 19:30N 46°05' W 122°56'342242.7
2014-Oct-29 19:29N 45°33' W 122°42'491215.9
2014-Oct-29 19:27N 46°12' W 123°23'321496.7
2014-Oct-29 19:25N 45°52' W 122°48'1416.5
2014-Oct-29 18:33N 46°05' W 122°56'204310.9
2014-Oct-29 18:33N 46°12' W 123°23'431484.0
2014-Oct-29 18:31N 45°37' W 122°48'15103.3
2014-Oct-29 18:22N 45°52' W 122°48'3238.7
2014-Oct-29 17:33N 46°12' W 123°23'20444.2
2014-Oct-29 17:30N 46°05' W 122°56'342375.0
2014-Oct-29 17:29N 45°33' W 122°42'191581.8
2014-Oct-29 17:28N 45°52' W 122°48'15139.0
2014-Oct-29 17:22N 45°37' W 122°48'4352.3
2014-Oct-29 16:33N 46°12' W 123°23'20211.2
2014-Oct-29 16:27N 46°05' W 122°56'14531.3
2014-Oct-29 16:25N 45°52' W 122°48'1571.9
2014-Oct-29 16:13N 45°37' W 122°48'0 0.0
2014-Oct-29 15:31N 45°37' W 122°48'432004.3
2014-Oct-29 15:30N 46°12' W 123°23'20449.6
2014-Oct-29 15:27N 46°05' W 122°56'14547.8
2014-Oct-29 15:25N 45°52' W 122°48'3236.5
2014-Oct-29 14:33N 46°12' W 123°23'431469.8
2014-Oct-29 14:31N 45°37' W 122°48'6149.6
2014-Oct-29 14:28N 45°33' W 122°42'341211.0
2014-Oct-29 14:27N 46°05' W 122°56'14553.7
2014-Oct-29 14:25N 45°52' W 122°48'1516.4
2014-Oct-29 13:31N 45°37' W 122°48'431978.6
2014-Oct-29 13:30N 46°12' W 123°23'20455.2
2014-Oct-29 13:27N 46°05' W 122°56'14542.1
2014-Oct-29 13:25N 45°52' W 122°48'1415.7
2014-Oct-29 12:30N 46°05' W 122°56'20373.9
2014-Oct-29 12:27N 46°12' W 123°23'32186.5
2014-Oct-29 12:16N 45°52' W 122°48'15261.7
2014-Oct-29 12:13N 45°37' W 122°48'2940.0
2014-Oct-29 11:30N 46°05' W 122°56'14536.5
2014-Oct-29 11:28N 45°52' W 122°48'152669.4
2014-Oct-29 11:28N 45°37' W 122°48'432004.3
2014-Oct-29 11:27N 46°12' W 123°23'2022.7
2014-Oct-29 10:33N 46°05' W 122°56'204580.4
2014-Oct-29 10:33N 46°12' W 123°23'431543.3
2014-Oct-29 10:31N 45°37' W 122°48'1543.2
2014-Oct-29 10:10N 45°52' W 122°48'3250.9
2014-Oct-29 09:33N 46°12' W 123°23'43547.3
2014-Oct-29 09:28N 45°37' W 122°48'291664.5
2014-Oct-29 09:27N 46°05' W 122°56'14548.0
2014-Oct-29 09:25N 45°52' W 122°48'3236.5
2014-Oct-29 08:33N 46°12' W 123°23'431558.9
2014-Oct-29 08:31N 45°37' W 122°48'291563.6
2014-Oct-29 08:30N 46°05' W 122°56'14572.1
2014-Oct-29 08:28N 45°52' W 122°48'1967.2
2014-Oct-29 08:11N 45°33' W 122°42'4975.8
2014-Oct-29 07:33N 46°12' W 123°23'32450.2
2014-Oct-29 07:28N 45°52' W 122°48'152321.2
2014-Oct-29 07:28N 45°37' W 122°48'291588.0
2014-Oct-29 07:27N 46°05' W 122°56'2930.8
2014-Oct-29 06:31N 45°37' W 122°48'29424.8
2014-Oct-29 06:27N 46°05' W 122°56'20193.4
2014-Oct-29 06:21N 46°12' W 123°23'32457.4
2014-Oct-29 06:16N 45°52' W 122°48'0 0.0
2014-Oct-29 05:31N 45°52' W 122°48'152135.5
2014-Oct-29 05:31N 45°37' W 122°48'291612.5
2014-Oct-29 05:30N 46°05' W 122°56'2021.3
2014-Oct-29 04:33N 46°12' W 123°23'20446.9
2014-Oct-29 04:30N 46°05' W 122°56'14565.9
2014-Oct-29 04:28N 45°52' W 122°48'152223.6
2014-Oct-29 04:28N 45°37' W 122°48'1515.7
2014-Oct-29 03:31N 45°52' W 122°48'14578.5
2014-Oct-29 03:30N 46°05' W 122°56'29905.4
2014-Oct-29 03:28N 45°37' W 122°48'431816.1
2014-Oct-29 03:27N 46°12' W 123°23'3234.8
2014-Oct-29 02:31N 45°52' W 122°48'152135.5
2014-Oct-29 02:31N 45°37' W 122°48'291540.6
2014-Oct-29 02:30N 46°05' W 122°56'204071.4
2014-Oct-29 02:30N 46°12' W 123°23'2021.5
2014-Oct-29 01:33N 46°05' W 122°56'20377.8
2014-Oct-29 01:30N 46°12' W 123°23'321536.8
2014-Oct-29 01:28N 45°52' W 122°48'15260.4
2014-Oct-29 01:25N 45°37' W 122°48'6193.5
2014-Oct-29 01:23N 45°33' W 122°42'3440.1
2014-Oct-29 00:33N 46°05' W 122°56'29946.8
2014-Oct-29 00:31N 45°37' W 122°48'6190.1
2014-Oct-29 00:29N 45°33' W 122°42'19171.1
2014-Oct-29 00:22N 45°52' W 122°48'32397.4
2014-Oct-29 00:18N 46°12' W 123°23'6 8.8
2014-Oct-28 23:33N 46°10' W 123°15'34121823.7
2014-Oct-28 23:33N 45°42' W 122°46'10350.7
2014-Oct-28 23:31N 45°52' W 122°48'14194.2
2014-Oct-28 23:27N 46°05' W 122°56'34207.4
2014-Oct-28 23:17N 45°33' W 122°42'2838.4
2014-Oct-28 22:33N 46°00' W 122°51'6526.9
2014-Oct-28 22:33N 45°55' W 122°48'12256.3
2014-Oct-28 22:30N 46°05' W 122°56'342883.4
2014-Oct-28 22:29N 45°33' W 122°42'1991.1
2014-Oct-28 22:16N 45°52' W 122°48'1520.3
2014-Oct-28 21:33N 45°37' W 122°48'411717.7
2014-Oct-28 21:31N 46°11' W 123°21'18768.4
2014-Oct-28 21:30N 46°05' W 122°56'342883.9
2014-Oct-28 21:29N 45°33' W 122°42'19306.7
2014-Oct-28 21:25N 45°52' W 122°48'0 0.0
2014-Oct-28 20:31N 45°52' W 122°48'14578.3
2014-Oct-28 20:30N 46°05' W 122°56'341706.0
2014-Oct-28 20:29N 45°33' W 122°42'0 0.0
2014-Oct-28 20:19N 45°33' W 122°42'1920.5
2014-Oct-28 19:22N 45°52' W 122°48'19177.6
2014-Oct-28 19:16N 45°33' W 122°42'34500.5
2014-Oct-28 19:12N 46°05' W 122°56'34283.7
2014-Oct-28 19:05N 45°33' W 122°42'3463.3
2014-Oct-28 18:33N 46°05' W 122°56'14197.1
2014-Oct-28 18:28N 45°52' W 122°48'192320.0
2014-Oct-28 18:28N 45°33' W 122°42'0 0.0
2014-Oct-28 18:17N 45°33' W 122°42'1924.0
2014-Oct-28 17:28N 45°52' W 122°48'19204.1
2014-Oct-28 17:23N 45°33' W 122°42'341081.5
2014-Oct-28 17:21N 46°05' W 122°56'34411.9
2014-Oct-28 17:16N 45°33' W 122°42'3443.8
2014-Oct-28 16:30N 46°05' W 122°56'14116.7
2014-Oct-28 16:22N 45°52' W 122°48'19570.5
2014-Oct-28 16:20N 45°33' W 122°42'3439.9
2014-Oct-28 15:30N 46°05' W 122°56'14619.8
2014-Oct-28 15:28N 45°52' W 122°48'1999.3
2014-Oct-28 15:17N 45°33' W 122°42'0 0.0
2014-Oct-28 15:14N 45°33' W 122°42'3448.6
2014-Oct-28 14:33N 46°05' W 122°56'344486.1
2014-Oct-28 14:32N 45°33' W 122°42'191221.4
2014-Oct-28 14:31N 45°52' W 122°48'19429.8
2014-Oct-28 14:29N 45°33' W 122°42'0 0.0
2014-Oct-28 13:29N 45°33' W 122°42'19357.0
2014-Oct-28 13:25N 45°52' W 122°48'143717.4
2014-Oct-28 13:25N 46°05' W 122°56'34256.6
2014-Oct-28 13:17N 45°33' W 122°42'0 0.0
2014-Oct-28 12:32N 45°33' W 122°42'191365.1
2014-Oct-28 12:31N 45°52' W 122°48'142891.3
2014-Oct-28 12:31N 46°05' W 122°56'3488.8
2014-Oct-28 12:08N 45°33' W 122°42'3453.5
2014-Oct-28 11:31N 46°05' W 122°56'341044.2
2014-Oct-28 11:29N 45°33' W 122°42'194641.5
2014-Oct-28 11:29N 45°52' W 122°48'19566.0
2014-Oct-28 11:26N 45°33' W 122°42'0 0.0
2014-Oct-28 10:32N 45°33' W 122°42'0 0.0
2014-Oct-28 10:32N 45°33' W 122°42'491357.4
2014-Oct-28 10:30N 46°12' W 123°23'321720.1
2014-Oct-28 10:28N 45°52' W 122°48'14230.3
2014-Oct-28 10:25N 46°05' W 122°56'3438.6
2014-Oct-28 09:32N 45°33' W 122°42'191242.9
2014-Oct-28 09:32N 45°52' W 122°48'141041.3
2014-Oct-28 09:31N 46°05' W 122°56'341101.1
2014-Oct-28 09:29N 45°33' W 122°42'49168.9
2014-Oct-28 09:12N 46°12' W 123°23'4974.5
2014-Oct-28 08:32N 45°33' W 122°42'341211.3
2014-Oct-28 08:31N 46°05' W 122°56'1477.4
2014-Oct-28 08:20N 45°52' W 122°48'32976.9
2014-Oct-28 08:18N 46°12' W 123°23'49229.5
2014-Oct-28 08:05N 45°33' W 122°42'0 0.0
2014-Oct-28 07:32N 45°33' W 122°42'491012.2
2014-Oct-28 07:30N 46°12' W 123°23'493891.3
2014-Oct-28 07:29N 45°33' W 122°42'341781.3
2014-Oct-28 07:28N 46°05' W 122°56'14403.6
2014-Oct-28 07:26N 45°52' W 122°48'1921.8
2014-Oct-28 06:32N 45°33' W 122°42'0 0.0
2014-Oct-28 06:29N 45°33' W 122°42'34283.0
2014-Oct-28 06:22N 46°05' W 122°56'14403.6
2014-Oct-28 06:20N 45°52' W 122°48'32137.4
2014-Oct-28 06:06N 46°12' W 123°23'2035.1
2014-Oct-28 05:31N 46°05' W 122°56'201093.9
2014-Oct-28 05:30N 46°12' W 123°23'4914592.3
2014-Oct-28 05:29N 45°33' W 122°42'19302.6
2014-Oct-28 05:26N 45°52' W 122°48'19427.1
2014-Oct-28 05:23N 45°33' W 122°42'3438.7
2014-Oct-28 04:31N 46°05' W 122°56'14406.8
2014-Oct-28 04:29N 45°52' W 122°48'32384.2
2014-Oct-28 04:24N 46°12' W 123°23'494072.7
2014-Oct-28 04:23N 45°33' W 122°42'3438.7
2014-Oct-28 03:31N 46°05' W 122°56'14400.5
2014-Oct-28 03:29N 45°52' W 122°48'32389.4
2014-Oct-28 03:24N 46°12' W 123°23'49191.0
2014-Oct-28 03:08N 45°33' W 122°42'0 0.0
2014-Oct-28 02:29N 45°33' W 122°42'19355.1
2014-Oct-28 02:26N 45°52' W 122°48'32960.5
2014-Oct-28 02:24N 46°12' W 123°23'20642.9
2014-Oct-28 02:22N 46°05' W 122°56'3438.2
2014-Oct-28 01:29N 45°33' W 122°42'193866.7
2014-Oct-28 01:29N 45°52' W 122°48'14127.0
2014-Oct-28 01:22N 46°05' W 122°56'341573.1
2014-Oct-28 01:20N 45°33' W 122°42'0 0.0
2014-Oct-28 00:32N 45°33' W 122°42'191420.0
2014-Oct-28 00:32N 45°52' W 122°48'19419.3
2014-Oct-28 00:29N 45°33' W 122°42'0 0.0
2014-Oct-27 23:32N 45°33' W 122°42'0 0.0
2014-Oct-27 23:29N 45°33' W 122°42'193026.1
2014-Oct-27 23:29N 45°52' W 122°48'14227.4
2014-Oct-27 23:25N 46°05' W 122°56'1416.3
2014-Oct-27 22:32N 45°52' W 122°48'14882.4
2014-Oct-27 22:31N 46°05' W 122°56'34473.1
2014-Oct-27 22:26N 45°33' W 122°42'0 0.0
2014-Oct-27 22:17N 45°33' W 122°42'0 0.0
2014-Oct-27 21:26N 45°33' W 122°42'193481.1
2014-Oct-27 21:26N 45°52' W 122°48'14982.0
2014-Oct-27 21:25N 46°05' W 122°56'34196.3
2014-Oct-27 21:14N 45°33' W 122°42'0 0.0
2014-Oct-27 20:26N 45°33' W 122°42'34428.0
2014-Oct-27 20:22N 46°05' W 122°56'14409.8
2014-Oct-27 20:20N 45°52' W 122°48'19437.9
2014-Oct-27 20:17N 45°33' W 122°42'0 0.0
2014-Oct-27 19:32N 45°33' W 122°42'010.8
2014-Oct-27 19:32N 45°33' W 122°42'341187.3
2014-Oct-27 19:31N 46°05' W 122°56'14423.1
2014-Oct-27 19:29N 45°52' W 122°48'32386.8
2014-Oct-27 19:24N 46°12' W 123°23'4957.0
2014-Oct-27 18:32N 45°33' W 122°42'341164.7
2014-Oct-27 18:31N 46°05' W 122°56'20174.1
2014-Oct-27 18:24N 46°12' W 123°23'321921.0
2014-Oct-27 18:23N 45°52' W 122°48'1416.7
2014-Oct-27 17:31N 46°05' W 122°56'14423.3
2014-Oct-27 17:29N 45°52' W 122°48'32174.4
2014-Oct-27 17:18N 46°12' W 123°23'2026.0
2014-Oct-27 16:31N 46°05' W 122°56'20174.9
2014-Oct-27 16:24N 46°12' W 123°23'49465.7
2014-Oct-27 16:17N 45°33' W 122°42'19171.4
2014-Oct-27 16:11N 45°52' W 122°48'19527.3
2014-Oct-27 16:08N 45°33' W 122°42'0 0.0
2014-Oct-27 15:32N 45°33' W 122°42'19351.6
2014-Oct-27 15:29N 45°52' W 122°48'14897.3
2014-Oct-27 15:28N 46°05' W 122°56'0 0.0
2014-Oct-27 15:25N 46°05' W 122°56'34267.4
2014-Oct-27 15:17N 45°33' W 122°42'1925.4
2014-Oct-27 14:32N 45°52' W 122°48'14882.1
2014-Oct-27 14:31N 46°05' W 122°56'201559.4
2014-Oct-27 14:30N 46°12' W 123°23'0 0.0
2014-Oct-27 14:30N 46°12' W 123°23'4913471.2
2014-Oct-27 14:29N 45°33' W 122°42'0 0.0
2014-Oct-27 14:23N 45°33' W 122°42'34149.9
2014-Oct-27 14:10N 46°05' W 122°56'1422.7
2014-Oct-27 13:32N 45°52' W 122°48'19511.8
2014-Oct-27 13:29N 45°33' W 122°42'341176.0
2014-Oct-27 13:28N 46°05' W 122°56'341176.0
2014-Oct-27 13:26N 45°33' W 122°42'0 0.0
2014-Oct-27 12:32N 45°33' W 122°42'0 0.0
2014-Oct-27 12:32N 45°33' W 122°42'491459.4
2014-Oct-27 12:30N 46°12' W 123°23'0 0.0
2014-Oct-27 12:30N 46°12' W 123°23'321889.5
2014-Oct-27 12:29N 45°52' W 122°48'1466.6
2014-Oct-27 12:16N 46°05' W 122°56'0 0.0
2014-Oct-27 12:10N 46°05' W 122°56'3453.3
2014-Oct-27 11:32N 45°33' W 122°42'194095.4
2014-Oct-27 11:32N 45°52' W 122°48'14839.4
2014-Oct-27 11:31N 46°05' W 122°56'34275.9
2014-Oct-27 11:23N 45°33' W 122°42'0 0.0
2014-Oct-27 10:32N 45°33' W 122°42'0 0.0
2014-Oct-27 10:29N 45°33' W 122°42'191698.1
2014-Oct-27 10:29N 45°52' W 122°48'14853.2
2014-Oct-27 10:28N 46°05' W 122°56'3436.5
2014-Oct-27 09:32N 45°33' W 122°42'0 0.9
2014-Oct-27 09:32N 45°33' W 122°42'341552.9
2014-Oct-27 09:31N 46°05' W 122°56'14433.7
2014-Oct-27 09:29N 45°52' W 122°48'1434.9
2014-Oct-27 09:04N 46°05' W 122°56'1427.0
2014-Oct-27 08:32N 45°52' W 122°48'19511.8
2014-Oct-27 08:29N 45°33' W 122°42'341153.6
2014-Oct-27 08:28N 46°05' W 122°56'341223.5
2014-Oct-27 08:26N 45°33' W 122°42'34281.0
2014-Oct-27 08:19N 46°05' W 122°56'3443.1
2014-Oct-27 07:32N 45°33' W 122°42'491287.8
2014-Oct-27 07:30N 46°12' W 123°23'498756.3
2014-Oct-27 07:29N 45°33' W 122°42'341187.5
2014-Oct-27 07:28N 46°05' W 122°56'20317.3
2014-Oct-27 07:24N 46°12' W 123°23'32462.9
2014-Oct-27 07:20N 45°52' W 122°48'141001.2
2014-Oct-27 07:19N 46°05' W 122°56'1418.4
2014-Oct-27 06:32N 45°52' W 122°48'14853.2
2014-Oct-27 06:31N 46°05' W 122°56'34432.6
2014-Oct-27 06:26N 45°33' W 122°42'0 0.1
2014-Oct-27 06:20N 45°33' W 122°42'341175.8
2014-Oct-27 06:19N 46°05' W 122°56'1417.4
2014-Oct-27 05:29N 45°52' W 122°48'19221.7
2014-Oct-27 05:24N 45°33' W 122°42'0 0.0
2014-Oct-27 05:23N 45°33' W 122°42'341142.7
2014-Oct-27 05:22N 46°05' W 122°56'3441.0
2014-Oct-27 04:32N 45°33' W 122°42'341187.5
2014-Oct-27 04:31N 46°05' W 122°56'14444.8
2014-Oct-27 04:29N 45°52' W 122°48'19203.6
2014-Oct-27 04:23N 45°33' W 122°42'0 0.0
2014-Oct-27 03:32N 45°33' W 122°42'193866.7
2014-Oct-27 03:32N 45°52' W 122°48'14215.1
2014-Oct-27 03:28N 46°05' W 122°56'34196.6
2014-Oct-27 03:17N 45°33' W 122°42'3440.6
2014-Oct-27 02:28N 46°05' W 122°56'341261.9
2014-Oct-27 02:26N 45°33' W 122°42'193867.9
2014-Oct-27 02:26N 45°52' W 122°48'19138.6
2014-Oct-27 02:17N 45°33' W 122°42'3443.3
2014-Oct-27 01:31N 46°05' W 122°56'14441.2
2014-Oct-27 01:29N 45°52' W 122°48'19429.6
2014-Oct-27 01:26N 45°33' W 122°42'3434.6
2014-Oct-27 00:28N 46°05' W 122°56'341248.7
2014-Oct-27 00:26N 45°33' W 122°42'194641.5
2014-Oct-27 00:26N 45°52' W 122°48'19480.2
2014-Oct-27 00:23N 45°33' W 122°42'0 0.0
2014-Oct-26 23:32N 45°33' W 122°42'341187.5
2014-Oct-26 23:31N 46°05' W 122°56'14456.5
2014-Oct-26 23:29N 45°52' W 122°48'19424.5
2014-Oct-26 23:26N 45°33' W 122°42'0 0.0
2014-Oct-26 22:32N 45°33' W 122°42'194095.4
2014-Oct-26 22:32N 45°52' W 122°48'14788.5
2014-Oct-26 22:31N 46°05' W 122°56'34469.5
2014-Oct-26 22:26N 45°33' W 122°42'3470.3
2014-Oct-26 21:58N 46°05' W 122°56'1433.5
2014-Oct-26 21:32N 45°52' W 122°48'14839.7
2014-Oct-26 21:31N 46°05' W 122°56'341459.3
2014-Oct-26 21:29N 45°33' W 122°42'0 0.0
2014-Oct-26 21:29N 45°33' W 122°42'0 0.0
2014-Oct-26 20:32N 45°33' W 122°42'341164.7
2014-Oct-26 20:31N 46°05' W 122°56'34440.5
2014-Oct-26 20:26N 45°33' W 122°42'3434.5
2014-Oct-26 19:28N 46°05' W 122°56'341302.4
2014-Oct-26 19:26N 45°33' W 122°42'0 0.0
2014-Oct-26 19:14N 45°33' W 122°42'3446.2
2014-Oct-26 18:31N 46°05' W 122°56'341807.8
2014-Oct-26 18:30N 45°33' W 122°42'0 0.0
2014-Oct-26 18:11N 45°33' W 122°42'0 0.0
2014-Oct-26 17:32N 45°33' W 122°42'0 0.0
2014-Oct-26 17:32N 45°33' W 122°42'341459.3
2014-Oct-26 17:31N 46°05' W 122°56'0 0.0
2014-Oct-26 16:31N 46°05' W 122°56'0 0.0
2014-Oct-26 16:31N 46°05' W 122°56'34306.6
2014-Oct-26 16:24N 45°33' W 122°42'0 0.5
2014-Oct-26 16:23N 45°33' W 122°42'0 0.0
2014-Oct-26 15:32N 45°33' W 122°42'341199.1
2014-Oct-26 15:31N 46°05' W 122°56'343907.3
2014-Oct-26 15:30N 45°33' W 122°42'0 0.0
2014-Oct-26 14:32N 45°33' W 122°42'341392.2
2014-Oct-26 14:31N 46°05' W 122°56'34277.2
2014-Oct-26 14:23N 45°33' W 122°42'0 0.0
2014-Oct-26 13:32N 45°33' W 122°42'0 0.0
2014-Oct-26 13:29N 45°33' W 122°42'341164.7
2014-Oct-26 13:28N 46°05' W 122°56'3436.5
2014-Oct-26 12:32N 45°33' W 122°42'0 0.0
2014-Oct-26 12:32N 45°33' W 122°42'34448.6
2014-Oct-26 12:28N 46°05' W 122°56'0 0.0
2014-Oct-26 11:55N 46°05' W 122°56'3490.3
2014-Oct-26 11:32N 45°33' W 122°42'0 0.0
2014-Oct-26 11:32N 45°33' W 122°42'491287.6
2014-Oct-26 11:30N 46°12' W 123°23'20232.7
2014-Oct-26 11:25N 46°05' W 122°56'0 0.0
2014-Oct-26 10:31N 46°05' W 122°56'34442.1
2014-Oct-26 10:26N 45°33' W 122°42'0 0.0
2014-Oct-26 10:17N 45°33' W 122°42'0 0.0
2014-Oct-26 09:32N 45°33' W 122°42'341316.6
2014-Oct-26 09:31N 46°05' W 122°56'34474.9
2014-Oct-26 09:26N 45°33' W 122°42'341175.8
2014-Oct-26 09:25N 46°05' W 122°56'3438.8
2014-Oct-26 08:33N 45°33' W 122°42'34183.0
2014-Oct-26 08:22N 46°05' W 122°56'34471.3
2014-Oct-26 08:17N 45°33' W 122°42'3443.2
2014-Oct-26 07:31N 46°05' W 122°56'341593.8
2014-Oct-26 07:29N 45°33' W 122°42'0 0.0
2014-Oct-26 07:11N 45°33' W 122°42'49353.0
2014-Oct-26 07:03N 46°12' W 123°23'0 0.0
2014-Oct-26 06:55N 46°12' W 123°23'2050.9
2014-Oct-26 06:31N 46°05' W 122°56'341533.2
2014-Oct-26 06:29N 45°33' W 122°42'0 0.0
2014-Oct-26 06:23N 45°33' W 122°42'3485.4
2014-Oct-26 06:00N 46°05' W 122°56'0 0.0
2014-Oct-26 05:29N 46°05' W 122°56'34370.4
2014-Oct-26 05:23N 45°33' W 122°42'0 0.0
2014-Oct-26 05:23N 45°33' W 122°42'0 0.0
2014-Oct-26 04:29N 45°33' W 122°42'345767.9
2014-Oct-26 04:29N 46°05' W 122°56'34238.0
2014-Oct-26 04:20N 45°33' W 122°42'0 0.0
2014-Oct-26 03:32N 45°33' W 122°42'34608.7
2014-Oct-26 03:29N 46°05' W 122°56'34175.0
2014-Oct-26 03:17N 45°33' W 122°42'3484.6
2014-Oct-26 02:54N 46°05' W 122°56'3494.9
2014-Oct-26 02:32N 45°33' W 122°42'34215.5
2014-Oct-26 02:23N 46°05' W 122°56'34369.3
2014-Oct-26 02:17N 45°33' W 122°42'3444.4
2014-Oct-26 01:32N 46°05' W 122°56'34357.3
2014-Oct-26 01:26N 45°33' W 122°42'0 0.0
2014-Oct-26 01:20N 45°33' W 122°42'3439.2
2014-Oct-26 00:29N 46°05' W 122°56'34761.8
2014-Oct-26 00:26N 45°33' W 122°42'0 0.0
2014-Oct-26 00:14N 45°33' W 122°42'0 0.0
2014-Oct-25 23:32N 45°33' W 122°42'345266.3
2014-Oct-25 23:32N 46°05' W 122°56'34807.5
2014-Oct-25 23:29N 45°33' W 122°42'0 0.0
2014-Oct-25 22:32N 45°33' W 122°42'343907.3
2014-Oct-25 22:32N 46°05' W 122°56'34776.4
2014-Oct-25 22:29N 45°33' W 122°42'3466.4
2014-Oct-25 21:59N 46°05' W 122°56'3476.2
2014-Oct-25 21:32N 45°33' W 122°42'0 0.0
2014-Oct-25 21:29N 45°33' W 122°42'345046.9
2014-Oct-25 21:29N 46°05' W 122°56'3435.7
2014-Oct-25 20:32N 45°33' W 122°42'0 0.0
2014-Oct-25 20:32N 45°33' W 122°42'344658.7
2014-Oct-25 20:32N 46°05' W 122°56'0 0.0
2014-Oct-25 19:59N 46°05' W 122°56'3468.3
2014-Oct-25 19:29N 45°33' W 122°42'0 0.1
2014-Oct-25 19:26N 45°33' W 122°42'343906.6
2014-Oct-25 19:26N 46°05' W 122°56'0 0.0
2014-Oct-25 13:53N 46°05' W 122°56'0 0.0
2014-Oct-25 11:38N 46°05' W 122°56'0 0.0
2014-Oct-25 10:38N 46°05' W 122°56'0 0.0
2014-Oct-25 10:08N 46°05' W 122°56'0 0.0
2014-Oct-25 06:17N 46°05' W 122°56'0 0.0
2014-Oct-24 20:46N 46°05' W 122°56'0 0.0
2014-Oct-24 03:31N 46°05' W 122°56'0 0.0
2014-Oct-23 19:40N 46°05' W 122°56'0 0.0
2014-Oct-23 19:10N 46°05' W 122°56'0 0.0
2014-Oct-23 16:55N 46°05' W 122°56'0 0.0
2014-Oct-23 11:19N 46°05' W 122°56'0 0.0
2014-Oct-22 23:13N 46°05' W 122°56'0 0.0
2014-Oct-22 11:37N 46°05' W 122°56'0 0.0
2014-Oct-21 14:10N 46°05' W 122°56'0 0.0
2014-Oct-21 13:25N 46°05' W 122°56'0 0.0
2014-Oct-21 11:10N 46°05' W 122°56'  
Track history (hours):
 
Tides and Currents Weather Stations Pressure Air Temp Water Temp Dewpoint Dewpoint Depression Visibility Wind Speed Wind Dir Waves Ship Positions

Zarling

Owner: Clean Rivers Co-op, Portland, OR. More information available from US FCC via Universal Licensing System.

Last reported at 2014-Oct-31 07:32 UTC. Time now 2014-Oct-31 07:48 UTC.
Position N 45°33' W 122°42'.

Length 12 m.

Type: Pollution control. MMSI: 3699126.

Date/timePositionNaut miles runAvg speedWind from/ knotsBaromVisibWave heightAir tempDewpointWater temp
2014-Oct-31 07:32N 45°33' W 122°42'3430281.4
2014-Oct-31 07:32N 46°05' W 122°56'201127.5
2014-Oct-31 07:31N 46°12' W 123°23'4377165.8
2014-Oct-31 07:30N 45°37' W 122°48'15158.8
2014-Oct-31 07:25N 45°52' W 122°48'1921.8
2014-Oct-31 06:32N 45°33' W 122°42'191364.3
2014-Oct-31 06:31N 45°52' W 122°48'152134.6
2014-Oct-31 06:31N 45°37' W 122°48'4338582.9
2014-Oct-31 06:30N 46°12' W 123°23'20648.5
2014-Oct-31 06:29N 46°05' W 122°56'2931.2
2014-Oct-31 05:33N 45°37' W 122°48'43154331.6
2014-Oct-31 05:33N 46°12' W 123°23'491621.2
2014-Oct-31 05:32N 45°33' W 122°42'34651.1
2014-Oct-31 05:29N 46°05' W 122°56'14234.5
2014-Oct-31 05:25N 45°52' W 122°48'3237.3
2014-Oct-31 04:33N 46°12' W 123°23'491667.5
2014-Oct-31 04:32N 45°33' W 122°42'191546.7
2014-Oct-31 04:31N 45°52' W 122°48'152224.5
2014-Oct-31 04:31N 45°37' W 122°48'29346.3
2014-Oct-31 04:26N 46°05' W 122°56'3437.5
2014-Oct-31 03:32N 45°33' W 122°42'3420187.6
2014-Oct-31 03:32N 46°05' W 122°56'20297.9
2014-Oct-31 03:27N 46°12' W 123°23'43429.9
2014-Oct-31 03:21N 45°37' W 122°48'15103.5
2014-Oct-31 03:13N 45°52' W 122°48'3248.7
2014-Oct-31 02:33N 46°12' W 123°23'20672.3
2014-Oct-31 02:32N 46°05' W 122°56'291588.0
2014-Oct-31 02:31N 45°37' W 122°48'6188.3
2014-Oct-31 02:29N 45°33' W 122°42'1991.1
2014-Oct-31 02:16N 45°52' W 122°48'3245.2
2014-Oct-31 01:33N 46°12' W 123°23'20678.6
2014-Oct-31 01:32N 46°05' W 122°56'141239.6
2014-Oct-31 01:31N 45°52' W 122°48'19527.3
2014-Oct-31 01:29N 45°33' W 122°42'6301.3
2014-Oct-31 01:28N 45°37' W 122°48'4347.5
2014-Oct-31 00:33N 46°12' W 123°23'491733.7
2014-Oct-31 00:32N 45°33' W 122°42'34644.3
2014-Oct-31 00:29N 46°05' W 122°56'141446.2
2014-Oct-31 00:28N 45°52' W 122°48'1571.7
2014-Oct-31 00:16N 45°37' W 122°48'6 8.0
2014-Oct-30 23:32N 45°33' W 122°42'191619.1
2014-Oct-30 23:31N 45°52' W 122°48'15260.4
2014-Oct-30 23:28N 45°37' W 122°48'4322047.4
2014-Oct-30 23:27N 46°12' W 123°23'20672.3
2014-Oct-30 23:26N 46°05' W 122°56'0 0.0
2014-Oct-30 22:32N 46°05' W 122°56'141335.0
2014-Oct-30 22:31N 45°52' W 122°48'32548.9
2014-Oct-30 22:27N 46°12' W 123°23'491700.1
2014-Oct-30 22:26N 45°33' W 122°42'621.8
2014-Oct-30 22:10N 45°37' W 122°48'6 9.3
2014-Oct-30 21:32N 45°33' W 122°42'6301.3
2014-Oct-30 21:31N 45°37' W 122°48'15342.2
2014-Oct-30 21:28N 45°52' W 122°48'323601.9
2014-Oct-30 21:27N 46°12' W 123°23'20672.3
2014-Oct-30 21:26N 46°05' W 122°56'2023.4
2014-Oct-30 20:33N 46°12' W 123°23'32758.2
2014-Oct-30 20:31N 45°52' W 122°48'19222.4
2014-Oct-30 20:26N 45°33' W 122°42'684.4
2014-Oct-30 20:22N 45°37' W 122°48'29874.6
2014-Oct-30 20:20N 46°05' W 122°56'0 0.0
2014-Oct-30 19:32N 46°05' W 122°56'141445.7
2014-Oct-30 19:31N 45°52' W 122°48'152224.5
2014-Oct-30 19:31N 45°37' W 122°48'43843.3
2014-Oct-30 19:28N 46°12' W 123°23'491636.4
2014-Oct-30 19:26N 45°33' W 122°42'0 0.0
2014-Oct-30 18:32N 45°33' W 122°42'3411011.4
2014-Oct-30 18:32N 46°05' W 122°56'14243.2
2014-Oct-30 18:28N 45°52' W 122°48'15139.8
2014-Oct-30 18:22N 45°37' W 122°48'43808.0
2014-Oct-30 18:18N 46°12' W 123°23'4962.5
2014-Oct-30 17:32N 45°33' W 122°42'34634.2
2014-Oct-30 17:29N 46°05' W 122°56'29433.6
2014-Oct-30 17:25N 45°37' W 122°48'43820.9
2014-Oct-30 17:21N 46°12' W 123°23'32768.4
2014-Oct-30 17:19N 45°52' W 122°48'1418.8
2014-Oct-30 16:33N 46°05' W 122°56'20502.0
2014-Oct-30 16:30N 46°12' W 123°23'491768.8
2014-Oct-30 16:29N 45°33' W 122°42'191581.8
2014-Oct-30 16:28N 45°52' W 122°48'15138.6
2014-Oct-30 16:22N 45°37' W 122°48'4353.4
2014-Oct-30 15:33N 46°12' W 123°23'43924.1
2014-Oct-30 15:31N 45°37' W 122°48'6185.1
2014-Oct-30 15:29N 45°33' W 122°42'341044.2
2014-Oct-30 15:27N 46°05' W 122°56'14180.7
2014-Oct-30 15:22N 45°52' W 122°48'1923.1
2014-Oct-30 14:32N 45°33' W 122°42'191513.5
2014-Oct-30 14:31N 45°52' W 122°48'323492.3
2014-Oct-30 14:30N 46°12' W 123°23'43907.9
2014-Oct-30 14:28N 45°37' W 122°48'29454.7
2014-Oct-30 14:24N 46°05' W 122°56'2024.2
2014-Oct-30 13:33N 46°12' W 123°23'202035.7
2014-Oct-30 13:33N 46°05' W 122°56'342018.4
2014-Oct-30 13:32N 45°33' W 122°42'684.4
2014-Oct-30 13:28N 45°37' W 122°48'15159.8
2014-Oct-30 13:22N 45°52' W 122°48'3239.5
2014-Oct-30 12:33N 46°12' W 123°23'202093.9
2014-Oct-30 12:33N 46°05' W 122°56'14486.4
2014-Oct-30 12:31N 45°52' W 122°48'152426.7
2014-Oct-30 12:31N 45°37' W 122°48'625.3
2014-Oct-30 12:17N 45°33' W 122°42'4967.3
2014-Oct-30 11:33N 46°12' W 123°23'202035.7
2014-Oct-30 11:33N 46°05' W 122°56'341922.6
2014-Oct-30 11:32N 45°33' W 122°42'191481.3
2014-Oct-30 11:31N 45°52' W 122°48'1595.5
2014-Oct-30 11:22N 45°37' W 122°48'2935.2
2014-Oct-30 10:33N 46°05' W 122°56'14505.3
2014-Oct-30 10:31N 45°52' W 122°48'322680.1
2014-Oct-30 10:30N 46°12' W 123°23'43941.0
2014-Oct-30 10:28N 45°37' W 122°48'672.5
2014-Oct-30 10:23N 45°33' W 122°42'4959.1
2014-Oct-30 09:33N 46°12' W 123°23'491751.3
2014-Oct-30 09:32N 45°33' W 122°42'6315.0
2014-Oct-30 09:31N 45°37' W 122°48'292106.1
2014-Oct-30 09:30N 46°05' W 122°56'14495.8
2014-Oct-30 09:28N 45°52' W 122°48'3235.2
2014-Oct-30 08:33N 46°12' W 123°23'491786.8
2014-Oct-30 08:32N 45°33' W 122°42'191697.6
2014-Oct-30 08:31N 45°52' W 122°48'152426.7
2014-Oct-30 08:31N 45°37' W 122°48'29437.4
2014-Oct-30 08:27N 46°05' W 122°56'2022.9
2014-Oct-30 07:33N 46°12' W 123°23'32823.3
2014-Oct-30 07:31N 45°52' W 122°48'19223.8
2014-Oct-30 07:26N 45°33' W 122°42'6293.1
2014-Oct-30 07:25N 45°37' W 122°48'29444.8
2014-Oct-30 07:21N 46°05' W 122°56'2025.8
2014-Oct-30 06:33N 46°12' W 123°23'32363.6
2014-Oct-30 06:28N 45°52' W 122°48'151976.5
2014-Oct-30 06:28N 45°37' W 122°48'29448.7
2014-Oct-30 06:24N 46°05' W 122°56'2024.2
2014-Oct-30 05:33N 46°12' W 123°23'32823.2
2014-Oct-30 05:31N 45°52' W 122°48'152135.5
2014-Oct-30 05:31N 45°37' W 122°48'29441.0
2014-Oct-30 05:27N 46°05' W 122°56'0 0.0
2014-Oct-30 04:33N 46°05' W 122°56'342202.3
2014-Oct-30 04:32N 45°33' W 122°42'683.8
2014-Oct-30 04:28N 45°37' W 122°48'439645.7
2014-Oct-30 04:27N 46°12' W 123°23'32230.5
2014-Oct-30 04:19N 45°52' W 122°48'1418.7
2014-Oct-30 03:33N 46°05' W 122°56'14520.6
2014-Oct-30 03:31N 45°52' W 122°48'152321.2
2014-Oct-30 03:31N 45°37' W 122°48'6185.0
2014-Oct-30 03:29N 45°33' W 122°42'492084.6
2014-Oct-30 03:27N 46°12' W 123°23'2022.4
2014-Oct-30 02:33N 46°05' W 122°56'14520.6
2014-Oct-30 02:31N 45°52' W 122°48'152224.5
2014-Oct-30 02:31N 45°37' W 122°48'438575.0
2014-Oct-30 02:30N 46°12' W 123°23'492694.0
2014-Oct-30 02:29N 45°33' W 122°42'4952.2
2014-Oct-30 01:34N 46°12' W 123°23'20334.6
2014-Oct-30 01:30N 46°05' W 122°56'342088.4
2014-Oct-30 01:29N 45°33' W 122°42'191546.7
2014-Oct-30 01:28N 45°52' W 122°48'152542.2
2014-Oct-30 01:28N 45°37' W 122°48'4347.3
2014-Oct-30 00:33N 46°12' W 123°23'204885.7
2014-Oct-30 00:33N 46°05' W 122°56'14473.1
2014-Oct-30 00:31N 45°52' W 122°48'15244.9
2014-Oct-30 00:28N 45°37' W 122°48'625.5
2014-Oct-30 00:14N 45°33' W 122°42'0 0.0
2014-Oct-29 23:32N 45°33' W 122°42'191480.9
2014-Oct-29 23:31N 45°52' W 122°48'152542.2
2014-Oct-29 23:31N 45°37' W 122°48'436430.5
2014-Oct-29 23:30N 46°12' W 123°23'20342.5
2014-Oct-29 23:27N 46°05' W 122°56'3436.8
2014-Oct-29 22:32N 45°33' W 122°42'191513.1
2014-Oct-29 22:31N 45°52' W 122°48'152225.4
2014-Oct-29 22:31N 45°37' W 122°48'43779.5
2014-Oct-29 22:27N 46°12' W 123°23'20336.2
2014-Oct-29 22:24N 46°05' W 122°56'2024.3
2014-Oct-29 21:33N 46°12' W 123°23'201980.7
2014-Oct-29 21:33N 46°05' W 122°56'14515.5
2014-Oct-29 21:31N 45°52' W 122°48'19220.3
2014-Oct-29 21:26N 45°33' W 122°42'685.4
2014-Oct-29 21:22N 45°37' W 122°48'2933.1
2014-Oct-29 20:30N 46°05' W 122°56'204310.9
2014-Oct-29 20:30N 46°12' W 123°23'495002.6
2014-Oct-29 20:29N 45°33' W 122°42'191546.7
2014-Oct-29 20:28N 45°52' W 122°48'15261.7
2014-Oct-29 20:25N 45°37' W 122°48'0 0.0
2014-Oct-29 19:31N 45°37' W 122°48'291810.5
2014-Oct-29 19:30N 46°05' W 122°56'342242.7
2014-Oct-29 19:29N 45°33' W 122°42'491215.9
2014-Oct-29 19:27N 46°12' W 123°23'321496.7
2014-Oct-29 19:25N 45°52' W 122°48'1416.5
2014-Oct-29 18:33N 46°05' W 122°56'204310.9
2014-Oct-29 18:33N 46°12' W 123°23'431484.0
2014-Oct-29 18:31N 45°37' W 122°48'15103.3
2014-Oct-29 18:22N 45°52' W 122°48'3238.7
2014-Oct-29 17:33N 46°12' W 123°23'20444.2
2014-Oct-29 17:30N 46°05' W 122°56'342375.0
2014-Oct-29 17:29N 45°33' W 122°42'191581.8
2014-Oct-29 17:28N 45°52' W 122°48'15139.0
2014-Oct-29 17:22N 45°37' W 122°48'4352.3
2014-Oct-29 16:33N 46°12' W 123°23'20211.2
2014-Oct-29 16:27N 46°05' W 122°56'14531.3
2014-Oct-29 16:25N 45°52' W 122°48'1571.9
2014-Oct-29 16:13N 45°37' W 122°48'0 0.0
2014-Oct-29 15:31N 45°37' W 122°48'432004.3
2014-Oct-29 15:30N 46°12' W 123°23'20449.6
2014-Oct-29 15:27N 46°05' W 122°56'14547.8
2014-Oct-29 15:25N 45°52' W 122°48'3236.5
2014-Oct-29 14:33N 46°12' W 123°23'431469.8
2014-Oct-29 14:31N 45°37' W 122°48'6149.6
2014-Oct-29 14:28N 45°33' W 122°42'341211.0
2014-Oct-29 14:27N 46°05' W 122°56'14553.7
2014-Oct-29 14:25N 45°52' W 122°48'1516.4
2014-Oct-29 13:31N 45°37' W 122°48'431978.6
2014-Oct-29 13:30N 46°12' W 123°23'20455.2
2014-Oct-29 13:27N 46°05' W 122°56'14542.1
2014-Oct-29 13:25N 45°52' W 122°48'1415.7
2014-Oct-29 12:30N 46°05' W 122°56'20373.9
2014-Oct-29 12:27N 46°12' W 123°23'32186.5
2014-Oct-29 12:16N 45°52' W 122°48'15261.7
2014-Oct-29 12:13N 45°37' W 122°48'2940.0
2014-Oct-29 11:30N 46°05' W 122°56'14536.5
2014-Oct-29 11:28N 45°52' W 122°48'152669.4
2014-Oct-29 11:28N 45°37' W 122°48'432004.3
2014-Oct-29 11:27N 46°12' W 123°23'2022.7
2014-Oct-29 10:33N 46°05' W 122°56'204580.4
2014-Oct-29 10:33N 46°12' W 123°23'431543.3
2014-Oct-29 10:31N 45°37' W 122°48'1543.2
2014-Oct-29 10:10N 45°52' W 122°48'3250.9
2014-Oct-29 09:33N 46°12' W 123°23'43547.3
2014-Oct-29 09:28N 45°37' W 122°48'291664.5
2014-Oct-29 09:27N 46°05' W 122°56'14548.0
2014-Oct-29 09:25N 45°52' W 122°48'3236.5
2014-Oct-29 08:33N 46°12' W 123°23'431558.9
2014-Oct-29 08:31N 45°37' W 122°48'291563.6
2014-Oct-29 08:30N 46°05' W 122°56'14572.1
2014-Oct-29 08:28N 45°52' W 122°48'1967.2
2014-Oct-29 08:11N 45°33' W 122°42'4975.8
2014-Oct-29 07:33N 46°12' W 123°23'32450.2
2014-Oct-29 07:28N 45°52' W 122°48'152321.2
2014-Oct-29 07:28N 45°37' W 122°48'291588.0
2014-Oct-29 07:27N 46°05' W 122°56'2930.8
2014-Oct-29 06:31N 45°37' W 122°48'29424.8
2014-Oct-29 06:27N 46°05' W 122°56'20193.4
2014-Oct-29 06:21N 46°12' W 123°23'32457.4
2014-Oct-29 06:16N 45°52' W 122°48'0 0.0
2014-Oct-29 05:31N 45°52' W 122°48'152135.5
2014-Oct-29 05:31N 45°37' W 122°48'291612.5
2014-Oct-29 05:30N 46°05' W 122°56'2021.3
2014-Oct-29 04:33N 46°12' W 123°23'20446.9
2014-Oct-29 04:30N 46°05' W 122°56'14565.9
2014-Oct-29 04:28N 45°52' W 122°48'152223.6
2014-Oct-29 04:28N 45°37' W 122°48'1515.7
2014-Oct-29 03:31N 45°52' W 122°48'14578.5
2014-Oct-29 03:30N 46°05' W 122°56'29905.4
2014-Oct-29 03:28N 45°37' W 122°48'431816.1
2014-Oct-29 03:27N 46°12' W 123°23'3234.8
2014-Oct-29 02:31N 45°52' W 122°48'152135.5
2014-Oct-29 02:31N 45°37' W 122°48'291540.6
2014-Oct-29 02:30N 46°05' W 122°56'204071.4
2014-Oct-29 02:30N 46°12' W 123°23'2021.5
2014-Oct-29 01:33N 46°05' W 122°56'20377.8
2014-Oct-29 01:30N 46°12' W 123°23'321536.8
2014-Oct-29 01:28N 45°52' W 122°48'15260.4
2014-Oct-29 01:25N 45°37' W 122°48'6193.5
2014-Oct-29 01:23N 45°33' W 122°42'3440.1
2014-Oct-29 00:33N 46°05' W 122°56'29946.8
2014-Oct-29 00:31N 45°37' W 122°48'6190.1
2014-Oct-29 00:29N 45°33' W 122°42'19171.1
2014-Oct-29 00:22N 45°52' W 122°48'32397.4
2014-Oct-29 00:18N 46°12' W 123°23'6 8.8
2014-Oct-28 23:33N 46°10' W 123°15'34121823.7
2014-Oct-28 23:33N 45°42' W 122°46'10350.7
2014-Oct-28 23:31N 45°52' W 122°48'14194.2
2014-Oct-28 23:27N 46°05' W 122°56'34207.4
2014-Oct-28 23:17N 45°33' W 122°42'2838.4
2014-Oct-28 22:33N 46°00' W 122°51'6526.9
2014-Oct-28 22:33N 45°55' W 122°48'12256.3
2014-Oct-28 22:30N 46°05' W 122°56'342883.4
2014-Oct-28 22:29N 45°33' W 122°42'1991.1
2014-Oct-28 22:16N 45°52' W 122°48'1520.3
2014-Oct-28 21:33N 45°37' W 122°48'411717.7
2014-Oct-28 21:31N 46°11' W 123°21'18768.4
2014-Oct-28 21:30N 46°05' W 122°56'342883.9
2014-Oct-28 21:29N 45°33' W 122°42'19306.7
2014-Oct-28 21:25N 45°52' W 122°48'0 0.0
2014-Oct-28 20:31N 45°52' W 122°48'14578.3
2014-Oct-28 20:30N 46°05' W 122°56'341706.0
2014-Oct-28 20:29N 45°33' W 122°42'0 0.0
2014-Oct-28 20:19N 45°33' W 122°42'1920.5
2014-Oct-28 19:22N 45°52' W 122°48'19177.6
2014-Oct-28 19:16N 45°33' W 122°42'34500.5
2014-Oct-28 19:12N 46°05' W 122°56'34283.7
2014-Oct-28 19:05N 45°33' W 122°42'3463.3
2014-Oct-28 18:33N 46°05' W 122°56'14197.1
2014-Oct-28 18:28N 45°52' W 122°48'192320.0
2014-Oct-28 18:28N 45°33' W 122°42'0 0.0
2014-Oct-28 18:17N 45°33' W 122°42'1924.0
2014-Oct-28 17:28N 45°52' W 122°48'19204.1
2014-Oct-28 17:23N 45°33' W 122°42'341081.5
2014-Oct-28 17:21N 46°05' W 122°56'34411.9
2014-Oct-28 17:16N 45°33' W 122°42'3443.8
2014-Oct-28 16:30N 46°05' W 122°56'14116.7
2014-Oct-28 16:22N 45°52' W 122°48'19570.5
2014-Oct-28 16:20N 45°33' W 122°42'3439.9
2014-Oct-28 15:30N 46°05' W 122°56'14619.8
2014-Oct-28 15:28N 45°52' W 122°48'1999.3
2014-Oct-28 15:17N 45°33' W 122°42'0 0.0
2014-Oct-28 15:14N 45°33' W 122°42'3448.6
2014-Oct-28 14:33N 46°05' W 122°56'344486.1
2014-Oct-28 14:32N 45°33' W 122°42'191221.4
2014-Oct-28 14:31N 45°52' W 122°48'19429.8
2014-Oct-28 14:29N 45°33' W 122°42'0 0.0
2014-Oct-28 13:29N 45°33' W 122°42'19357.0
2014-Oct-28 13:25N 45°52' W 122°48'143717.4
2014-Oct-28 13:25N 46°05' W 122°56'34256.6
2014-Oct-28 13:17N 45°33' W 122°42'0 0.0
2014-Oct-28 12:32N 45°33' W 122°42'191365.1
2014-Oct-28 12:31N 45°52' W 122°48'142891.3
2014-Oct-28 12:31N 46°05' W 122°56'3488.8
2014-Oct-28 12:08N 45°33' W 122°42'3453.5
2014-Oct-28 11:31N 46°05' W 122°56'341044.2
2014-Oct-28 11:29N 45°33' W 122°42'194641.5
2014-Oct-28 11:29N 45°52' W 122°48'19566.0
2014-Oct-28 11:26N 45°33' W 122°42'0 0.0
2014-Oct-28 10:32N 45°33' W 122°42'0 0.0
2014-Oct-28 10:32N 45°33' W 122°42'491357.4
2014-Oct-28 10:30N 46°12' W 123°23'321720.1
2014-Oct-28 10:28N 45°52' W 122°48'14230.3
2014-Oct-28 10:25N 46°05' W 122°56'3438.6
2014-Oct-28 09:32N 45°33' W 122°42'191242.9
2014-Oct-28 09:32N 45°52' W 122°48'141041.3
2014-Oct-28 09:31N 46°05' W 122°56'341101.1
2014-Oct-28 09:29N 45°33' W 122°42'49168.9
2014-Oct-28 09:12N 46°12' W 123°23'4974.5
2014-Oct-28 08:32N 45°33' W 122°42'341211.3
2014-Oct-28 08:31N 46°05' W 122°56'1477.4
2014-Oct-28 08:20N 45°52' W 122°48'32976.9
2014-Oct-28 08:18N 46°12' W 123°23'49229.5
2014-Oct-28 08:05N 45°33' W 122°42'0 0.0
2014-Oct-28 07:32N 45°33' W 122°42'491012.2
2014-Oct-28 07:30N 46°12' W 123°23'493891.3
2014-Oct-28 07:29N 45°33' W 122°42'341781.3
2014-Oct-28 07:28N 46°05' W 122°56'14403.6
2014-Oct-28 07:26N 45°52' W 122°48'1921.8
2014-Oct-28 06:32N 45°33' W 122°42'0 0.0
2014-Oct-28 06:29N 45°33' W 122°42'34283.0
2014-Oct-28 06:22N 46°05' W 122°56'14403.6
2014-Oct-28 06:20N 45°52' W 122°48'32137.4
2014-Oct-28 06:06N 46°12' W 123°23'2035.1
2014-Oct-28 05:31N 46°05' W 122°56'201093.9
2014-Oct-28 05:30N 46°12' W 123°23'4914592.3
2014-Oct-28 05:29N 45°33' W 122°42'19302.6
2014-Oct-28 05:26N 45°52' W 122°48'19427.1
2014-Oct-28 05:23N 45°33' W 122°42'3438.7
2014-Oct-28 04:31N 46°05' W 122°56'14406.8
2014-Oct-28 04:29N 45°52' W 122°48'32384.2
2014-Oct-28 04:24N 46°12' W 123°23'494072.7
2014-Oct-28 04:23N 45°33' W 122°42'3438.7
2014-Oct-28 03:31N 46°05' W 122°56'14400.5
2014-Oct-28 03:29N 45°52' W 122°48'32389.4
2014-Oct-28 03:24N 46°12' W 123°23'49191.0
2014-Oct-28 03:08N 45°33' W 122°42'0 0.0
2014-Oct-28 02:29N 45°33' W 122°42'19355.1
2014-Oct-28 02:26N 45°52' W 122°48'32960.5
2014-Oct-28 02:24N 46°12' W 123°23'20642.9
2014-Oct-28 02:22N 46°05' W 122°56'3438.2
2014-Oct-28 01:29N 45°33' W 122°42'193866.7
2014-Oct-28 01:29N 45°52' W 122°48'14127.0
2014-Oct-28 01:22N 46°05' W 122°56'341573.1
2014-Oct-28 01:20N 45°33' W 122°42'0 0.0
2014-Oct-28 00:32N 45°33' W 122°42'191420.0
2014-Oct-28 00:32N 45°52' W 122°48'19419.3
2014-Oct-28 00:29N 45°33' W 122°42'0 0.0
2014-Oct-27 23:32N 45°33' W 122°42'0 0.0
2014-Oct-27 23:29N 45°33' W 122°42'193026.1
2014-Oct-27 23:29N 45°52' W 122°48'14227.4
2014-Oct-27 23:25N 46°05' W 122°56'1416.3
2014-Oct-27 22:32N 45°52' W 122°48'14882.4
2014-Oct-27 22:31N 46°05' W 122°56'34473.1
2014-Oct-27 22:26N 45°33' W 122°42'0 0.0
2014-Oct-27 22:17N 45°33' W 122°42'0 0.0
2014-Oct-27 21:26N 45°33' W 122°42'193481.1
2014-Oct-27 21:26N 45°52' W 122°48'14982.0
2014-Oct-27 21:25N 46°05' W 122°56'34196.3
2014-Oct-27 21:14N 45°33' W 122°42'0 0.0
2014-Oct-27 20:26N 45°33' W 122°42'34428.0
2014-Oct-27 20:22N 46°05' W 122°56'14409.8
2014-Oct-27 20:20N 45°52' W 122°48'19437.9
2014-Oct-27 20:17N 45°33' W 122°42'0 0.0
2014-Oct-27 19:32N 45°33' W 122°42'010.8
2014-Oct-27 19:32N 45°33' W 122°42'341187.3
2014-Oct-27 19:31N 46°05' W 122°56'14423.1
2014-Oct-27 19:29N 45°52' W 122°48'32386.8
2014-Oct-27 19:24N 46°12' W 123°23'4957.0
2014-Oct-27 18:32N 45°33' W 122°42'341164.7
2014-Oct-27 18:31N 46°05' W 122°56'20174.1
2014-Oct-27 18:24N 46°12' W 123°23'321921.0
2014-Oct-27 18:23N 45°52' W 122°48'1416.7
2014-Oct-27 17:31N 46°05' W 122°56'14423.3
2014-Oct-27 17:29N 45°52' W 122°48'32174.4
2014-Oct-27 17:18N 46°12' W 123°23'2026.0
2014-Oct-27 16:31N 46°05' W 122°56'20174.9
2014-Oct-27 16:24N 46°12' W 123°23'49465.7
2014-Oct-27 16:17N 45°33' W 122°42'19171.4
2014-Oct-27 16:11N 45°52' W 122°48'19527.3
2014-Oct-27 16:08N 45°33' W 122°42'0 0.0
2014-Oct-27 15:32N 45°33' W 122°42'19351.6
2014-Oct-27 15:29N 45°52' W 122°48'14897.3
2014-Oct-27 15:28N 46°05' W 122°56'0 0.0
2014-Oct-27 15:25N 46°05' W 122°56'34267.4
2014-Oct-27 15:17N 45°33' W 122°42'1925.4
2014-Oct-27 14:32N 45°52' W 122°48'14882.1
2014-Oct-27 14:31N 46°05' W 122°56'201559.4
2014-Oct-27 14:30N 46°12' W 123°23'0 0.0
2014-Oct-27 14:30N 46°12' W 123°23'4913471.2
2014-Oct-27 14:29N 45°33' W 122°42'0 0.0
2014-Oct-27 14:23N 45°33' W 122°42'34149.9
2014-Oct-27 14:10N 46°05' W 122°56'1422.7
2014-Oct-27 13:32N 45°52' W 122°48'19511.8
2014-Oct-27 13:29N 45°33' W 122°42'341176.0
2014-Oct-27 13:28N 46°05' W 122°56'341176.0
2014-Oct-27 13:26N 45°33' W 122°42'0 0.0
2014-Oct-27 12:32N 45°33' W 122°42'0 0.0
2014-Oct-27 12:32N 45°33' W 122°42'491459.4
2014-Oct-27 12:30N 46°12' W 123°23'0 0.0
2014-Oct-27 12:30N 46°12' W 123°23'321889.5
2014-Oct-27 12:29N 45°52' W 122°48'1466.6
2014-Oct-27 12:16N 46°05' W 122°56'0 0.0
2014-Oct-27 12:10N 46°05' W 122°56'3453.3
2014-Oct-27 11:32N 45°33' W 122°42'194095.4
2014-Oct-27 11:32N 45°52' W 122°48'14839.4
2014-Oct-27 11:31N 46°05' W 122°56'34275.9
2014-Oct-27 11:23N 45°33' W 122°42'0 0.0
2014-Oct-27 10:32N 45°33' W 122°42'0 0.0
2014-Oct-27 10:29N 45°33' W 122°42'191698.1
2014-Oct-27 10:29N 45°52' W 122°48'14853.2
2014-Oct-27 10:28N 46°05' W 122°56'3436.5
2014-Oct-27 09:32N 45°33' W 122°42'0 0.9
2014-Oct-27 09:32N 45°33' W 122°42'341552.9
2014-Oct-27 09:31N 46°05' W 122°56'14433.7
2014-Oct-27 09:29N 45°52' W 122°48'1434.9
2014-Oct-27 09:04N 46°05' W 122°56'1427.0
2014-Oct-27 08:32N 45°52' W 122°48'19511.8
2014-Oct-27 08:29N 45°33' W 122°42'341153.6
2014-Oct-27 08:28N 46°05' W 122°56'341223.5
2014-Oct-27 08:26N 45°33' W 122°42'34281.0
2014-Oct-27 08:19N 46°05' W 122°56'3443.1
2014-Oct-27 07:32N 45°33' W 122°42'491287.8
2014-Oct-27 07:30N 46°12' W 123°23'498756.3
2014-Oct-27 07:29N 45°33' W 122°42'341187.5
2014-Oct-27 07:28N 46°05' W 122°56'20317.3
2014-Oct-27 07:24N 46°12' W 123°23'32462.9
2014-Oct-27 07:20N 45°52' W 122°48'141001.2
2014-Oct-27 07:19N 46°05' W 122°56'1418.4
2014-Oct-27 06:32N 45°52' W 122°48'14853.2
2014-Oct-27 06:31N 46°05' W 122°56'34432.6
2014-Oct-27 06:26N 45°33' W 122°42'0 0.1
2014-Oct-27 06:20N 45°33' W 122°42'341175.8
2014-Oct-27 06:19N 46°05' W 122°56'1417.4
2014-Oct-27 05:29N 45°52' W 122°48'19221.7
2014-Oct-27 05:24N 45°33' W 122°42'0 0.0
2014-Oct-27 05:23N 45°33' W 122°42'341142.7
2014-Oct-27 05:22N 46°05' W 122°56'3441.0
2014-Oct-27 04:32N 45°33' W 122°42'341187.5
2014-Oct-27 04:31N 46°05' W 122°56'14444.8
2014-Oct-27 04:29N 45°52' W 122°48'19203.6
2014-Oct-27 04:23N 45°33' W 122°42'0 0.0
2014-Oct-27 03:32N 45°33' W 122°42'193866.7
2014-Oct-27 03:32N 45°52' W 122°48'14215.1
2014-Oct-27 03:28N 46°05' W 122°56'34196.6
2014-Oct-27 03:17N 45°33' W 122°42'3440.6
2014-Oct-27 02:28N 46°05' W 122°56'341261.9
2014-Oct-27 02:26N 45°33' W 122°42'193867.9
2014-Oct-27 02:26N 45°52' W 122°48'19138.6
2014-Oct-27 02:17N 45°33' W 122°42'3443.3
2014-Oct-27 01:31N 46°05' W 122°56'14441.2
2014-Oct-27 01:29N 45°52' W 122°48'19429.6
2014-Oct-27 01:26N 45°33' W 122°42'3434.6
2014-Oct-27 00:28N 46°05' W 122°56'341248.7
2014-Oct-27 00:26N 45°33' W 122°42'194641.5
2014-Oct-27 00:26N 45°52' W 122°48'19480.2
2014-Oct-27 00:23N 45°33' W 122°42'0 0.0
2014-Oct-26 23:32N 45°33' W 122°42'341187.5
2014-Oct-26 23:31N 46°05' W 122°56'14456.5
2014-Oct-26 23:29N 45°52' W 122°48'19424.5
2014-Oct-26 23:26N 45°33' W 122°42'0 0.0
2014-Oct-26 22:32N 45°33' W 122°42'194095.4
2014-Oct-26 22:32N 45°52' W 122°48'14788.5
2014-Oct-26 22:31N 46°05' W 122°56'34469.5
2014-Oct-26 22:26N 45°33' W 122°42'3470.3
2014-Oct-26 21:58N 46°05' W 122°56'1433.5
2014-Oct-26 21:32N 45°52' W 122°48'14839.7
2014-Oct-26 21:31N 46°05' W 122°56'341459.3
2014-Oct-26 21:29N 45°33' W 122°42'0 0.0
2014-Oct-26 21:29N 45°33' W 122°42'0 0.0
2014-Oct-26 20:32N 45°33' W 122°42'341164.7
2014-Oct-26 20:31N 46°05' W 122°56'34440.5
2014-Oct-26 20:26N 45°33' W 122°42'3434.5
2014-Oct-26 19:28N 46°05' W 122°56'341302.4
2014-Oct-26 19:26N 45°33' W 122°42'0 0.0
2014-Oct-26 19:14N 45°33' W 122°42'3446.2
2014-Oct-26 18:31N 46°05' W 122°56'341807.8
2014-Oct-26 18:30N 45°33' W 122°42'0 0.0
2014-Oct-26 18:11N 45°33' W 122°42'0 0.0
2014-Oct-26 17:32N 45°33' W 122°42'0 0.0
2014-Oct-26 17:32N 45°33' W 122°42'341459.3
2014-Oct-26 17:31N 46°05' W 122°56'0 0.0
2014-Oct-26 16:31N 46°05' W 122°56'0 0.0
2014-Oct-26 16:31N 46°05' W 122°56'34306.6
2014-Oct-26 16:24N 45°33' W 122°42'0 0.5
2014-Oct-26 16:23N 45°33' W 122°42'0 0.0
2014-Oct-26 15:32N 45°33' W 122°42'341199.1
2014-Oct-26 15:31N 46°05' W 122°56'343907.3
2014-Oct-26 15:30N 45°33' W 122°42'0 0.0
2014-Oct-26 14:32N 45°33' W 122°42'341392.2
2014-Oct-26 14:31N 46°05' W 122°56'34277.2
2014-Oct-26 14:23N 45°33' W 122°42'0 0.0
2014-Oct-26 13:32N 45°33' W 122°42'0 0.0
2014-Oct-26 13:29N 45°33' W 122°42'341164.7
2014-Oct-26 13:28N 46°05' W 122°56'3436.5
2014-Oct-26 12:32N 45°33' W 122°42'0 0.0
2014-Oct-26 12:32N 45°33' W 122°42'34448.6
2014-Oct-26 12:28N 46°05' W 122°56'0 0.0
2014-Oct-26 11:55N 46°05' W 122°56'3490.3
2014-Oct-26 11:32N 45°33' W 122°42'0 0.0
2014-Oct-26 11:32N 45°33' W 122°42'491287.6
2014-Oct-26 11:30N 46°12' W 123°23'20232.7
2014-Oct-26 11:25N 46°05' W 122°56'0 0.0
2014-Oct-26 10:31N 46°05' W 122°56'34442.1
2014-Oct-26 10:26N 45°33' W 122°42'0 0.0
2014-Oct-26 10:17N 45°33' W 122°42'0 0.0
2014-Oct-26 09:32N 45°33' W 122°42'341316.6
2014-Oct-26 09:31N 46°05' W 122°56'34474.9
2014-Oct-26 09:26N 45°33' W 122°42'341175.8
2014-Oct-26 09:25N 46°05' W 122°56'3438.8
2014-Oct-26 08:33N 45°33' W 122°42'34183.0
2014-Oct-26 08:22N 46°05' W 122°56'34471.3
2014-Oct-26 08:17N 45°33' W 122°42'3443.2
2014-Oct-26 07:31N 46°05' W 122°56'341593.8
2014-Oct-26 07:29N 45°33' W 122°42'0 0.0
2014-Oct-26 07:11N 45°33' W 122°42'49353.0
2014-Oct-26 07:03N 46°12' W 123°23'0 0.0
2014-Oct-26 06:55N 46°12' W 123°23'2050.9
2014-Oct-26 06:31N 46°05' W 122°56'341533.2
2014-Oct-26 06:29N 45°33' W 122°42'0 0.0
2014-Oct-26 06:23N 45°33' W 122°42'3485.4
2014-Oct-26 06:00N 46°05' W 122°56'0 0.0
2014-Oct-26 05:29N 46°05' W 122°56'34370.4
2014-Oct-26 05:23N 45°33' W 122°42'0 0.0
2014-Oct-26 05:23N 45°33' W 122°42'0 0.0
2014-Oct-26 04:29N 45°33' W 122°42'345767.9
2014-Oct-26 04:29N 46°05' W 122°56'34238.0
2014-Oct-26 04:20N 45°33' W 122°42'0 0.0
2014-Oct-26 03:32N 45°33' W 122°42'34608.7
2014-Oct-26 03:29N 46°05' W 122°56'34175.0
2014-Oct-26 03:17N 45°33' W 122°42'3484.6
2014-Oct-26 02:54N 46°05' W 122°56'3494.9
2014-Oct-26 02:32N 45°33' W 122°42'34215.5
2014-Oct-26 02:23N 46°05' W 122°56'34369.3
2014-Oct-26 02:17N 45°33' W 122°42'3444.4
2014-Oct-26 01:32N 46°05' W 122°56'34357.3
2014-Oct-26 01:26N 45°33' W 122°42'0 0.0
2014-Oct-26 01:20N 45°33' W 122°42'3439.2
2014-Oct-26 00:29N 46°05' W 122°56'34761.8
2014-Oct-26 00:26N 45°33' W 122°42'0 0.0
2014-Oct-26 00:14N 45°33' W 122°42'0 0.0
2014-Oct-25 23:32N 45°33' W 122°42'345266.3
2014-Oct-25 23:32N 46°05' W 122°56'34807.5
2014-Oct-25 23:29N 45°33' W 122°42'0 0.0
2014-Oct-25 22:32N 45°33' W 122°42'343907.3
2014-Oct-25 22:32N 46°05' W 122°56'34776.4
2014-Oct-25 22:29N 45°33' W 122°42'3466.4
2014-Oct-25 21:59N 46°05' W 122°56'3476.2
2014-Oct-25 21:32N 45°33' W 122°42'0 0.0
2014-Oct-25 21:29N 45°33' W 122°42'345046.9
2014-Oct-25 21:29N 46°05' W 122°56'3435.7
2014-Oct-25 20:32N 45°33' W 122°42'0 0.0
2014-Oct-25 20:32N 45°33' W 122°42'344658.7
2014-Oct-25 20:32N 46°05' W 122°56'0 0.0
2014-Oct-25 19:59N 46°05' W 122°56'3468.3
2014-Oct-25 19:29N 45°33' W 122°42'0 0.1
2014-Oct-25 19:26N 45°33' W 122°42'343906.6
2014-Oct-25 19:26N 46°05' W 122°56'0 0.0
2014-Oct-25 13:53N 46°05' W 122°56'0 0.0
2014-Oct-25 11:38N 46°05' W 122°56'0 0.0
2014-Oct-25 10:38N 46°05' W 122°56'0 0.0
2014-Oct-25 10:08N 46°05' W 122°56'0 0.0
2014-Oct-25 06:17N 46°05' W 122°56'0 0.0
2014-Oct-24 20:46N 46°05' W 122°56'0 0.0
2014-Oct-24 03:31N 46°05' W 122°56'0 0.0
2014-Oct-23 19:40N 46°05' W 122°56'0 0.0
2014-Oct-23 19:10N 46°05' W 122°56'0 0.0
2014-Oct-23 16:55N 46°05' W 122°56'0 0.0
2014-Oct-23 11:19N 46°05' W 122°56'0 0.0
2014-Oct-22 23:13N 46°05' W 122°56'0 0.0
2014-Oct-22 11:37N 46°05' W 122°56'0 0.0
2014-Oct-21 14:10N 46°05' W 122°56'0 0.0
2014-Oct-21 13:25N 46°05' W 122°56'0 0.0
2014-Oct-21 11:10N 46°05' W 122°56'  

Dump ship's entire track history